Time;durP1;ratioP1;P1;durP2;ratioP2;P2;SDS_P1;SDS_P2;PMS_P1;PMS_P2;Temp;Humidity;BMP_temperature;BMP_pressure;BME280_temperature;BME280_humidity;BME280_pressure;Samples;Min_cycle;Max_cycle;Signal;HPM_P1;HPM_P2
2023/07/03 00:02:19;;;;;;;14.05;4.30;;;16.50;70.20;;;;;;5006227;28;20078;-80
2023/07/03 00:04:46;;;;;;;13.18;4.55;;;16.40;70.30;;;;;;5004470;28;20165;-80
2023/07/03 00:07:14;;;;;;;15.67;4.33;;;16.40;70.40;;;;;;5007472;28;20532;-80
2023/07/03 00:09:41;;;;;;;12.63;4.07;;;16.40;70.30;;;;;;5006286;28;20061;-80
2023/07/03 00:12:10;;;;;;;15.20;4.30;;;16.40;70.40;;;;;;5006261;28;20212;-80
2023/07/03 00:14:37;;;;;;;13.23;4.47;;;16.40;70.50;;;;;;5001226;28;20046;-80
2023/07/03 00:17:04;;;;;;;14.98;4.20;;;16.40;70.50;;;;;;5006501;28;20131;-80
2023/07/03 00:19:32;;;;;;;14.63;4.10;;;16.40;70.60;;;;;;5006955;28;20599;-80
2023/07/03 00:22:00;;;;;;;13.85;4.50;;;16.40;70.60;;;;;;5004523;28;20157;-80
2023/07/03 00:24:28;;;;;;;16.05;4.68;;;16.30;70.50;;;;;;5006201;28;20058;-80
2023/07/03 00:26:55;;;;;;;19.42;4.93;;;16.30;70.80;;;;;;5006993;28;20054;-80
2023/07/03 00:29:23;;;;;;;10.90;4.03;;;16.30;70.90;;;;;;4988500;28;20054;-81
2023/07/03 00:31:50;;;;;;;14.97;4.53;;;16.30;70.80;;;;;;5004818;28;20068;-80
2023/07/03 00:34:18;;;;;;;15.18;4.50;;;16.30;71.00;;;;;;5006655;28;20491;-80
2023/07/03 00:36:47;;;;;;;13.13;4.28;;;16.30;71.20;;;;;;5006497;28;20046;-80
2023/07/03 00:39:14;;;;;;;13.98;4.35;;;16.20;71.20;;;;;;4988603;28;20054;-80
2023/07/03 00:41:41;;;;;;;16.50;4.90;;;16.20;71.40;;;;;;4990219;28;20679;-80
2023/07/03 00:44:10;;;;;;;16.63;4.37;;;16.20;71.60;;;;;;5006450;28;20112;-80
2023/07/03 00:46:39;;;;;;;14.43;4.40;;;16.20;71.60;;;;;;5006746;28;20050;-80
2023/07/03 00:49:07;;;;;;;12.73;3.92;;;16.20;71.80;;;;;;4985207;28;20680;-81
2023/07/03 00:51:34;;;;;;;11.77;4.50;;;16.20;71.70;;;;;;4997764;28;20499;-80
2023/07/03 00:54:02;;;;;;;16.20;5.03;;;16.20;72.00;;;;;;4988691;28;20058;-80
2023/07/03 00:56:29;;;;;;;14.50;4.00;;;16.20;72.10;;;;;;5005745;28;20061;-80
2023/07/03 00:58:57;;;;;;;16.90;4.32;;;16.20;72.20;;;;;;5005012;28;20596;-81
2023/07/03 01:01:27;;;;;;;16.73;4.55;;;16.20;72.30;;;;;;5006418;28;20086;-80
2023/07/03 01:04:00;;;;;;;16.02;4.72;;;16.20;72.40;;;;;;5006341;28;20058;-80
2023/07/03 01:06:32;;;;;;;15.70;4.57;;;16.20;72.40;;;;;;4990838;28;20443;-81
2023/07/03 01:09:03;;;;;;;16.47;4.30;;;16.10;72.50;;;;;;5006642;28;20042;-81
2023/07/03 01:11:31;;;;;;;16.45;4.03;;;16.20;72.60;;;;;;5005018;28;20061;-81
2023/07/03 01:14:01;;;;;;;16.15;4.60;;;16.10;72.70;;;;;;5007429;28;20050;-80
2023/07/03 01:16:30;;;;;;;15.48;4.32;;;16.20;72.90;;;;;;4993683;28;20192;-80
2023/07/03 01:18:59;;;;;;;14.25;4.45;;;16.10;72.80;;;;;;5009678;28;20187;-80
2023/07/03 01:21:39;;;;;;;16.77;4.40;;;16.20;73.00;;;;;;4987455;28;20137;-80
2023/07/03 01:24:13;;;;;;;18.15;4.43;;;16.10;73.00;;;;;;4979563;28;20055;-80
2023/07/03 01:26:44;;;;;;;17.77;4.88;;;16.10;73.00;;;;;;4990208;28;20450;-81
2023/07/03 01:29:20;;;;;;;15.10;4.15;;;16.20;73.30;;;;;;5003269;28;20103;-80
2023/07/03 01:31:48;;;;;;;15.98;3.92;;;16.10;73.20;;;;;;5005569;28;20137;-80
2023/07/03 01:34:15;;;;;;;16.83;4.07;;;16.20;73.50;;;;;;5009312;28;20050;-80
2023/07/03 01:36:43;;;;;;;16.83;4.53;;;16.20;73.50;;;;;;4989303;28;20217;-80
2023/07/03 01:39:10;;;;;;;17.95;4.20;;;16.20;73.80;;;;;;5006623;28;20062;-80
2023/07/03 01:41:38;;;;;;;16.60;3.90;;;16.20;73.90;;;;;;5007120;28;20085;-80
2023/07/03 01:44:07;;;;;;;17.55;4.07;;;16.20;73.90;;;;;;5009564;28;20046;-80
2023/07/03 01:46:34;;;;;;;16.83;3.90;;;16.20;74.00;;;;;;5009424;28;20133;-80
2023/07/03 01:49:01;;;;;;;17.88;4.20;;;16.20;74.10;;;;;;5008131;28;20137;-80
2023/07/03 01:51:46;;;;;;;17.00;4.05;;;16.20;74.20;;;;;;5009451;28;20085;-80
2023/07/03 01:54:22;;;;;;;16.30;4.15;;;16.20;74.30;;;;;;5005640;28;20057;-80
2023/07/03 01:56:51;;;;;;;21.30;4.68;;;16.20;74.30;;;;;;5009253;28;20607;-80
2023/07/03 01:59:24;;;;;;;14.77;3.87;;;16.20;74.40;;;;;;5026403;28;20443;-80
2023/07/03 02:01:56;;;;;;;16.30;4.05;;;16.20;74.50;;;;;;4992159;28;20061;-80
2023/07/03 02:04:29;;;;;;;19.67;4.13;;;16.20;74.60;;;;;;5007366;28;20121;-80
2023/07/03 02:06:59;;;;;;;16.05;4.00;;;16.20;74.60;;;;;;5008685;28;20132;-80
2023/07/03 02:09:27;;;;;;;18.98;4.22;;;16.20;74.70;;;;;;4992840;28;20157;-80
2023/07/03 02:11:57;;;;;;;14.67;3.63;;;16.20;74.70;;;;;;4992226;28;20050;-80
2023/07/03 02:14:25;;;;;;;16.98;4.47;;;16.20;74.90;;;;;;4990038;28;20550;-80
2023/07/03 02:16:53;;;;;;;14.63;4.20;;;16.20;74.90;;;;;;5008944;28;20125;-80
2023/07/03 02:19:28;;;;;;;16.63;4.47;;;16.20;75.00;;;;;;5008769;28;20097;-80
2023/07/03 02:21:55;;;;;;;15.55;3.80;;;16.20;75.20;;;;;;5007000;28;20056;-80
2023/07/03 02:24:22;;;;;;;13.70;3.87;;;16.20;74.90;;;;;;5007502;28;20141;-80
2023/07/03 02:26:50;;;;;;;15.00;4.35;;;16.20;75.10;;;;;;5006334;28;20051;-80
2023/07/03 02:29:17;;;;;;;17.50;3.88;;;16.20;75.00;;;;;;5024969;28;20055;-80
2023/07/03 02:31:47;;;;;;;22.27;3.90;;;16.20;75.00;;;;;;5008302;28;20058;-80
2023/07/03 02:34:15;;;;;;;15.55;4.55;;;16.20;75.00;;;;;;5005811;28;20539;-80
2023/07/03 02:36:46;;;;;;;15.43;4.03;;;16.20;75.10;;;;;;5006431;28;20046;-80
2023/07/03 02:39:13;;;;;;;14.35;3.50;;;16.20;75.10;;;;;;5007593;28;20061;-80
2023/07/03 02:41:40;;;;;;;13.90;4.07;;;16.20;75.10;;;;;;5024852;28;20057;-80
2023/07/03 02:44:08;;;;;;;16.35;4.00;;;16.20;75.10;;;;;;5008965;28;20050;-80
2023/07/03 02:46:36;;;;;;;15.13;4.03;;;16.20;75.10;;;;;;4991175;28;20571;-80
2023/07/03 02:49:04;;;;;;;14.07;3.50;;;16.20;74.90;;;;;;5007725;28;20046;-80
2023/07/03 02:51:31;;;;;;;12.52;3.53;;;16.20;74.40;;;;;;4991520;28;20077;-80
2023/07/03 02:54:01;;;;;;;14.48;3.47;;;16.10;73.90;;;;;;5006818;28;20058;-80
2023/07/03 02:56:28;;;;;;;11.75;3.17;;;16.10;73.60;;;;;;4990829;28;20061;-80
2023/07/03 02:58:55;;;;;;;14.23;3.50;;;16.10;73.00;;;;;;4989415;28;20054;-80
2023/07/03 03:01:27;;;;;;;14.53;2.83;;;16.10;73.00;;;;;;5007895;28;20129;-80
2023/07/03 03:03:58;;;;;;;13.10;2.85;;;16.10;72.30;;;;;;4991540;28;20555;-80
2023/07/03 03:06:27;;;;;;;11.30;2.33;;;16.10;71.60;;;;;;4990896;28;20109;-80
2023/07/03 03:08:54;;;;;;;10.15;2.28;;;16.10;71.40;;;;;;5005906;28;20061;-80
2023/07/03 03:11:21;;;;;;;12.18;2.65;;;16.00;70.90;;;;;;4991385;28;20054;-80
2023/07/03 03:13:51;;;;;;;9.67;2.47;;;16.00;70.50;;;;;;5006639;28;20057;-80
2023/07/03 03:16:18;;;;;;;6.10;1.73;;;16.00;69.10;;;;;;5008028;28;20058;-80
2023/07/03 03:18:47;;;;;;;7.35;1.70;;;16.00;68.00;;;;;;5006563;28;20053;-80
2023/07/03 03:21:15;;;;;;;10.18;2.15;;;16.00;67.80;;;;;;4985994;28;20106;-80
2023/07/03 03:23:44;;;;;;;7.03;1.45;;;16.00;65.80;;;;;;5001065;28;20047;-81
2023/07/03 03:26:11;;;;;;;6.40;1.00;;;16.00;64.40;;;;;;4992113;28;20134;-81
2023/07/03 03:28:38;;;;;;;8.43;1.25;;;15.90;63.60;;;;;;4991362;28;20084;-80
2023/07/03 03:31:06;;;;;;;6.35;1.50;;;15.80;63.60;;;;;;4989411;28;20173;-80
2023/07/03 03:33:37;;;;;;;7.15;1.65;;;15.80;64.00;;;;;;5004717;28;20057;-80
2023/07/03 03:36:05;;;;;;;7.47;1.25;;;15.80;64.10;;;;;;5008662;28;20054;-80
2023/07/03 03:38:32;;;;;;;7.67;1.60;;;15.80;63.90;;;;;;5003322;28;20054;-80
2023/07/03 03:41:04;;;;;;;9.05;2.08;;;15.80;63.90;;;;;;5006595;28;20062;-80
2023/07/03 03:43:34;;;;;;;6.53;1.58;;;15.70;64.20;;;;;;5007202;28;20045;-80
2023/07/03 03:46:02;;;;;;;5.35;1.20;;;15.60;64.20;;;;;;4990767;28;20158;-80
2023/07/03 03:48:32;;;;;;;5.53;1.30;;;15.60;63.80;;;;;;5006549;28;20148;-80
2023/07/03 03:51:00;;;;;;;6.87;1.87;;;15.60;63.90;;;;;;5003975;28;20051;-81
2023/07/03 03:53:29;;;;;;;7.70;1.52;;;15.60;63.90;;;;;;4982938;28;20050;-80
2023/07/03 03:55:56;;;;;;;10.00;1.73;;;15.60;64.00;;;;;;4990556;28;20054;-80
2023/07/03 03:58:25;;;;;;;10.60;1.70;;;15.60;64.10;;;;;;4989834;28;20046;-80
2023/07/03 04:00:53;;;;;;;7.45;1.63;;;15.60;64.10;;;;;;5007443;28;20133;-80
2023/07/03 04:03:20;;;;;;;8.53;1.60;;;15.60;64.30;;;;;;5006961;28;20086;-81
2023/07/03 04:05:47;;;;;;;7.05;1.80;;;15.60;64.40;;;;;;5004976;28;20127;-80
2023/07/03 04:08:14;;;;;;;8.13;1.70;;;15.50;64.50;;;;;;5007374;28;20672;-80
2023/07/03 04:10:42;;;;;;;9.13;1.70;;;15.60;64.50;;;;;;5006677;28;20564;-80
2023/07/03 04:13:10;;;;;;;6.93;1.40;;;15.50;64.70;;;;;;5007395;28;20515;-80
2023/07/03 04:15:51;;;;;;;9.20;1.67;;;15.50;64.60;;;;;;5006748;28;20548;-81
2023/07/03 04:18:18;;;;;;;6.82;1.45;;;15.50;64.80;;;;;;5001231;28;20133;-80
2023/07/03 04:20:45;;;;;;;9.32;1.60;;;15.50;64.90;;;;;;4997719;28;20604;-80
2023/07/03 04:23:12;;;;;;;7.63;1.40;;;15.50;64.80;;;;;;5006162;28;20073;-80
2023/07/03 04:25:39;;;;;;;10.25;1.52;;;15.50;64.90;;;;;;4984261;28;20163;-80
2023/07/03 04:28:06;;;;;;;7.97;1.80;;;15.50;65.00;;;;;;5001691;28;20060;-80
2023/07/03 04:30:33;;;;;;;8.13;1.42;;;15.50;65.20;;;;;;5022923;28;20105;-80
2023/07/03 04:33:02;;;;;;;8.15;1.50;;;15.40;65.30;;;;;;5006129;28;20528;-80
2023/07/03 04:35:29;;;;;;;6.88;1.40;;;15.40;65.20;;;;;;4989967;28;20054;-81
2023/07/03 04:37:56;;;;;;;10.52;1.70;;;15.40;65.30;;;;;;5008557;28;20134;-80
2023/07/03 04:40:23;;;;;;;8.67;1.43;;;15.40;65.10;;;;;;5005703;28;20056;-80
2023/07/03 04:42:49;;;;;;;7.63;1.52;;;15.40;65.30;;;;;;5003007;28;20047;-80
2023/07/03 04:45:17;;;;;;;9.35;1.63;;;15.40;65.40;;;;;;4999318;28;20050;-80
2023/07/03 04:47:44;;;;;;;6.30;1.38;;;15.40;65.50;;;;;;5007214;28;20055;-80
2023/07/03 04:50:15;;;;;;;7.00;1.42;;;15.50;65.30;;;;;;5009814;28;20058;-80
2023/07/03 04:52:43;;;;;;;8.93;1.47;;;15.40;65.30;;;;;;5010189;28;20049;-80
2023/07/03 04:55:11;;;;;;;10.30;1.60;;;15.40;65.40;;;;;;5010169;28;20066;-80
2023/07/03 04:57:40;;;;;;;7.47;1.50;;;15.50;65.30;;;;;;5008696;28;20054;-80
2023/07/03 05:00:14;;;;;;;6.53;1.20;;;15.50;65.40;;;;;;5009930;28;20050;-79
2023/07/03 05:02:42;;;;;;;8.27;1.60;;;15.50;65.50;;;;;;4995825;28;20058;-79
2023/07/03 05:05:10;;;;;;;7.47;1.40;;;15.50;65.50;;;;;;5000935;28;20057;-79
2023/07/03 05:07:39;;;;;;;8.50;1.45;;;15.50;65.60;;;;;;5017691;28;20054;-79
2023/07/03 05:10:07;;;;;;;7.70;1.60;;;15.50;65.40;;;;;;5007594;28;20057;-79
2023/07/03 05:12:34;;;;;;;8.50;1.55;;;15.50;65.50;;;;;;5010224;28;20133;-80
2023/07/03 05:15:03;;;;;;;5.55;1.00;;;15.50;65.40;;;;;;5011232;28;20065;-80
2023/07/03 05:17:30;;;;;;;9.10;1.10;;;15.60;65.20;;;;;;5010903;28;20047;-80
2023/07/03 05:19:57;;;;;;;7.35;1.30;;;15.60;65.10;;;;;;5010363;28;20157;-80
2023/07/03 05:22:24;;;;;;;8.50;1.40;;;15.60;65.20;;;;;;5010567;28;20515;-80
2023/07/03 05:24:52;;;;;;;9.50;1.58;;;15.60;65.30;;;;;;5010208;28;20524;-80
2023/07/03 05:27:20;;;;;;;8.30;1.50;;;15.60;65.60;;;;;;4990918;28;20050;-80
2023/07/03 05:29:47;;;;;;;7.60;1.37;;;15.60;65.60;;;;;;5017866;28;20069;-80
2023/07/03 05:32:14;;;;;;;6.00;1.20;;;15.50;65.90;;;;;;5009349;28;20086;-80
2023/07/03 05:34:41;;;;;;;7.90;1.35;;;15.50;66.10;;;;;;5010471;28;20060;-79
2023/07/03 05:37:08;;;;;;;10.45;1.67;;;15.60;66.30;;;;;;5009497;28;20050;-79
2023/07/03 05:39:35;;;;;;;7.43;1.55;;;15.60;66.40;;;;;;5011783;28;20248;-79
2023/07/03 05:45:15;;;;;;;8.57;1.23;;;15.60;66.30;;;;;;5028353;28;20046;-79
2023/07/03 05:47:42;;;;;;;6.18;1.38;;;15.60;66.70;;;;;;5027816;28;20074;-79
2023/07/03 05:50:10;;;;;;;8.63;1.38;;;15.60;66.80;;;;;;5027682;28;20054;-78
2023/07/03 05:52:40;;;;;;;13.23;2.03;;;15.80;67.10;;;;;;5021046;28;20058;-79
2023/07/03 05:55:07;;;;;;;5.00;1.10;;;15.80;67.10;;;;;;5021798;28;20054;-78
2023/07/03 05:57:34;;;;;;;6.60;1.40;;;15.80;67.20;;;;;;5029688;28;20071;-78
2023/07/03 06:00:05;;;;;;;4.78;0.95;;;15.80;67.50;;;;;;5027681;28;20124;-79
2023/07/03 06:02:41;;;;;;;5.90;1.10;;;15.90;67.20;;;;;;5015205;28;20046;-79
2023/07/03 06:05:08;;;;;;;7.93;1.58;;;16.00;67.40;;;;;;5025439;28;20054;-78
2023/07/03 06:07:35;;;;;;;5.80;0.83;;;16.00;67.10;;;;;;5023335;28;20048;-78
2023/07/03 06:10:28;;;;;;;7.90;1.52;;;16.10;67.20;;;;;;5032309;28;20053;-78
2023/07/03 06:12:55;;;;;;;9.38;1.50;;;16.10;67.00;;;;;;5016053;28;20052;-78
2023/07/03 06:15:22;;;;;;;8.57;1.50;;;16.10;66.90;;;;;;5036621;28;20132;-78
2023/07/03 06:17:50;;;;;;;7.78;1.10;;;16.20;66.60;;;;;;5033989;28;20128;-77
2023/07/03 06:20:17;;;;;;;7.03;1.40;;;16.20;66.80;;;;;;5037894;28;20505;-78
2023/07/03 06:22:44;;;;;;;7.05;1.40;;;16.20;67.00;;;;;;5032616;28;20046;-78
2023/07/03 06:25:12;;;;;;;7.22;1.15;;;16.20;66.80;;;;;;5047708;28;20050;-79
2023/07/03 06:27:39;;;;;;;9.38;1.80;;;16.30;66.40;;;;;;5041299;28;20060;-78
2023/07/03 06:30:08;;;;;;;7.82;1.13;;;16.40;66.00;;;;;;5035122;28;20140;-79
2023/07/03 06:32:35;;;;;;;7.67;1.07;;;16.40;65.80;;;;;;5038859;28;20168;-79
2023/07/03 06:35:04;;;;;;;10.52;1.65;;;16.40;65.20;;;;;;5034395;28;20820;-79
2023/07/03 06:37:31;;;;;;;6.63;1.33;;;16.40;65.70;;;;;;5035970;28;20054;-78
2023/07/03 06:39:58;;;;;;;6.65;1.45;;;16.50;64.80;;;;;;5037947;28;20058;-78
2023/07/03 06:42:25;;;;;;;8.10;1.10;;;16.50;64.40;;;;;;5036862;28;21031;-79
2023/07/03 06:44:58;;;;;;;6.43;1.17;;;16.50;63.50;;;;;;5002579;28;20049;-79
2023/07/03 06:47:25;;;;;;;7.07;1.40;;;16.60;64.00;;;;;;5029420;28;20049;-80
2023/07/03 06:49:52;;;;;;;5.45;1.30;;;16.50;64.60;;;;;;5028412;28;20054;-80
2023/07/03 06:52:21;;;;;;;3.53;0.60;;;16.50;64.40;;;;;;5011424;28;20452;-80
2023/07/03 06:54:48;;;;;;;6.82;0.93;;;16.60;63.70;;;;;;5008582;28;20050;-77
2023/07/03 06:57:15;;;;;;;3.50;0.90;;;16.60;63.80;;;;;;5041173;28;20088;-82
2023/07/03 06:59:42;;;;;;;8.13;1.52;;;16.60;63.40;;;;;;5013479;28;20041;-80
2023/07/03 07:02:09;;;;;;;6.55;1.27;;;16.60;63.00;;;;;;5021263;28;20580;-79
2023/07/03 07:04:39;;;;;;;7.55;1.70;;;16.70;62.80;;;;;;5019432;28;20057;-78
2023/07/03 07:07:06;;;;;;;10.85;1.80;;;16.70;62.80;;;;;;5009097;28;20173;-78
2023/07/03 07:09:35;;;;;;;8.40;1.13;;;16.70;63.10;;;;;;5020624;28;20122;-80
2023/07/03 07:12:02;;;;;;;8.32;1.05;;;16.70;63.20;;;;;;5044236;28;20101;-80
2023/07/03 07:14:29;;;;;;;7.43;1.13;;;16.70;63.50;;;;;;5025383;28;20054;-79
2023/07/03 07:16:57;;;;;;;8.77;1.70;;;16.70;63.50;;;;;;5025623;28;20080;-79
2023/07/03 07:19:24;;;;;;;5.18;1.00;;;16.80;61.80;;;;;;5022888;28;20057;-80
2023/07/03 07:21:51;;;;;;;8.73;1.33;;;16.70;61.10;;;;;;5026815;28;20073;-81
2023/07/03 07:24:21;;;;;;;4.25;1.02;;;16.70;61.40;;;;;;5014958;28;20987;-79
2023/07/03 07:26:54;;;;;;;8.57;1.02;;;16.60;62.10;;;;;;5025253;28;20570;-78
2023/07/03 07:29:21;;;;;;;4.35;1.10;;;16.70;63.00;;;;;;5025322;28;20534;-78
2023/07/03 07:31:49;;;;;;;9.75;1.30;;;16.70;63.20;;;;;;5024046;28;20058;-78
2023/07/03 07:34:41;;;;;;;8.40;1.60;;;16.80;62.70;;;;;;5027848;28;20087;-78
2023/07/03 07:37:08;;;;;;;5.97;1.23;;;16.90;62.10;;;;;;5022202;28;20049;-79
2023/07/03 07:39:41;;;;;;;10.55;1.35;;;17.00;61.60;;;;;;5029476;28;20050;-79
2023/07/03 07:42:09;;;;;;;6.38;1.10;;;17.00;62.00;;;;;;5010459;28;20047;-78
2023/07/03 07:44:36;;;;;;;6.40;1.50;;;17.00;61.70;;;;;;5029035;28;20050;-77
2023/07/03 07:47:04;;;;;;;7.63;1.33;;;17.20;60.90;;;;;;5026474;28;20531;-77
2023/07/03 07:49:31;;;;;;;5.95;1.20;;;17.20;60.70;;;;;;5040926;28;20522;-79
2023/07/03 07:51:58;;;;;;;6.90;1.00;;;17.40;58.20;;;;;;5021045;28;20049;-78
2023/07/03 07:54:25;;;;;;;5.43;1.00;;;17.40;58.50;;;;;;5028769;28;20057;-79
2023/07/03 07:56:52;;;;;;;4.80;0.95;;;17.40;58.60;;;;;;5007371;28;20804;-79
2023/07/03 07:59:21;;;;;;;5.53;1.00;;;17.30;59.00;;;;;;5026284;28;20060;-80
2023/07/03 08:01:49;;;;;;;4.10;0.77;;;17.30;59.30;;;;;;5026600;28;20659;-80
2023/07/03 08:04:16;;;;;;;3.03;0.73;;;17.40;58.70;;;;;;5022524;28;20520;-80
2023/07/03 08:06:43;;;;;;;3.58;0.73;;;17.40;59.10;;;;;;5007594;28;20057;-80
2023/07/03 08:09:11;;;;;;;5.25;1.10;;;17.50;59.00;;;;;;5007833;28;20054;-79
2023/07/03 08:11:41;;;;;;;6.13;0.90;;;17.50;59.00;;;;;;5019992;28;20047;-84
2023/07/03 08:14:08;;;;;;;5.93;1.00;;;17.60;57.90;;;;;;5022477;28;20237;-78
2023/07/03 08:16:37;;;;;;;3.58;0.60;;;17.60;59.40;;;;;;5025212;28;20053;-79
2023/07/03 08:19:05;;;;;;;5.25;0.95;;;17.60;57.70;;;;;;5008938;28;20069;-79
2023/07/03 08:21:32;;;;;;;5.72;0.90;;;17.80;55.90;;;;;;5009101;28;20536;-79
2023/07/03 08:23:59;;;;;;;4.93;0.90;;;17.80;56.40;;;;;;5025894;28;20045;-77
2023/07/03 08:26:26;;;;;;;6.10;0.57;;;17.80;56.70;;;;;;5025577;28;20042;-79
2023/07/03 08:28:53;;;;;;;5.22;0.77;;;17.80;56.50;;;;;;5018738;28;20065;-82
2023/07/03 08:31:20;;;;;;;4.90;0.65;;;17.90;57.20;;;;;;5004315;28;20938;-81
2023/07/03 08:33:49;;;;;;;5.68;0.85;;;18.00;55.40;;;;;;5044203;28;20567;-81
2023/07/03 08:36:16;;;;;;;5.20;0.87;;;18.00;55.20;;;;;;5023463;28;20220;-79
2023/07/03 08:38:43;;;;;;;4.07;1.10;;;18.00;54.90;;;;;;5023817;28;20170;-80
2023/07/03 08:41:12;;;;;;;6.38;0.82;;;18.00;55.30;;;;;;5025973;28;20050;-80
2023/07/03 08:43:42;;;;;;;4.60;0.70;;;18.00;55.60;;;;;;5025348;28;20057;-80
2023/07/03 08:46:14;;;;;;;4.13;0.63;;;17.90;55.60;;;;;;5040489;28;20057;-80
2023/07/03 08:48:43;;;;;;;3.53;0.77;;;17.80;55.40;;;;;;5028371;28;20050;-83
2023/07/03 08:51:15;;;;;;;3.13;0.50;;;17.80;54.60;;;;;;5043226;28;20535;-82
2023/07/03 08:53:45;;;;;;;5.13;0.82;;;17.80;55.10;;;;;;5010715;28;20061;-85
2023/07/03 08:56:16;;;;;;;4.25;1.13;;;17.60;55.60;;;;;;5026325;28;20149;-81
2023/07/03 08:58:44;;;;;;;4.60;0.75;;;17.60;56.30;;;;;;5026479;28;20137;-82
2023/07/03 09:01:24;;;;;;;6.83;0.70;;;17.50;57.30;;;;;;5022354;28;20046;-83
2023/07/03 09:04:01;;;;;;;4.65;0.90;;;17.40;58.40;;;;;;5031662;28;20177;-84
2023/07/03 09:06:36;;;;;;;4.68;0.88;;;17.30;59.10;;;;;;5008094;28;20185;-82
2023/07/03 09:09:14;;;;;;;4.10;0.77;;;17.20;60.20;;;;;;5022543;28;20054;-81
2023/07/03 09:12:02;;;;;;;4.60;0.80;;;17.10;61.40;;;;;;5008434;28;20052;-81
2023/07/03 09:14:38;;;;;;;5.93;0.83;;;17.00;61.90;;;;;;5020315;28;20145;-82
2023/07/03 09:17:09;;;;;;;4.75;1.00;;;17.00;62.60;;;;;;5020784;28;20064;-83
2023/07/03 09:19:39;;;;;;;5.18;0.82;;;17.00;62.90;;;;;;5024329;28;20061;-81
2023/07/03 09:22:15;;;;;;;7.63;1.25;;;17.00;63.20;;;;;;5034241;28;20160;-79
2023/07/03 09:24:45;;;;;;;5.35;1.08;;;17.00;62.50;;;;;;5021785;28;20634;-81
2023/07/03 09:27:19;;;;;;;4.93;0.90;;;17.00;61.80;;;;;;5041992;28;20061;-80
2023/07/03 09:29:48;;;;;;;7.05;1.05;;;17.00;60.80;;;;;;5038672;28;20124;-86
2023/07/03 09:32:24;;;;;;;5.68;1.30;;;17.00;60.90;;;;;;5017066;28;20052;-86
2023/07/03 09:35:04;;;;;;;5.05;0.98;;;17.10;60.90;;;;;;5010636;28;20058;-86
2023/07/03 09:37:33;;;;;;;5.72;1.20;;;17.20;60.60;;;;;;5011125;28;20496;-86
2023/07/03 09:40:00;;;;;;;6.07;0.93;;;17.30;58.50;;;;;;5012398;28;20062;-86
2023/07/03 09:42:28;;;;;;;2.75;0.60;;;17.30;57.00;;;;;;5028228;28;20133;-87
2023/07/03 09:44:55;;;;;;;5.15;0.95;;;17.40;56.60;;;;;;5010198;28;20109;-86
2023/07/03 09:47:26;;;;;;;3.33;0.60;;;17.40;56.30;;;;;;5024690;28;20176;-86
2023/07/03 09:49:53;;;;;;;3.65;0.90;;;17.40;57.10;;;;;;5013866;28;20054;-86
2023/07/03 09:52:22;;;;;;;3.87;0.50;;;17.40;57.40;;;;;;5030028;28;20133;-85
2023/07/03 09:54:50;;;;;;;6.35;1.00;;;17.40;56.80;;;;;;5030044;28;20057;-87
2023/07/03 09:57:24;;;;;;;4.57;0.80;;;17.40;57.90;;;;;;5028925;28;20049;-87
2023/07/03 09:59:53;;;;;;;3.33;0.70;;;17.50;55.90;;;;;;5046638;28;20058;-86
2023/07/03 10:02:22;;;;;;;3.67;0.75;;;17.60;54.40;;;;;;5012970;28;20120;-86
2023/07/03 10:04:50;;;;;;;5.17;0.90;;;17.70;54.30;;;;;;5013291;28;20058;-86
2023/07/03 10:07:18;;;;;;;4.13;0.80;;;17.80;54.60;;;;;;5011917;28;20109;-87
2023/07/03 10:09:50;;;;;;;3.75;0.70;;;17.90;55.40;;;;;;5013267;28;20088;-85
2023/07/03 10:12:26;;;;;;;4.97;1.05;;;18.00;54.40;;;;;;5029183;28;20586;-86
2023/07/03 10:14:57;;;;;;;4.47;0.88;;;18.00;54.10;;;;;;5029428;28;20058;-85
2023/07/03 10:17:27;;;;;;;6.00;1.00;;;18.10;53.90;;;;;;5013003;28;20050;-84
2023/07/03 10:19:58;;;;;;;4.57;0.80;;;18.10;54.40;;;;;;5028813;28;20151;-84
2023/07/03 10:22:26;;;;;;;4.20;1.15;;;18.10;54.80;;;;;;5027730;28;20057;-84
2023/07/03 10:25:00;;;;;;;5.03;0.80;;;18.10;55.10;;;;;;5045936;28;20814;-84
2023/07/03 10:27:29;;;;;;;7.68;1.17;;;18.10;55.60;;;;;;5029291;28;20061;-84
2023/07/03 10:29:57;;;;;;;3.73;0.90;;;18.00;55.40;;;;;;5027893;28;20060;-85
2023/07/03 10:32:28;;;;;;;6.85;0.98;;;18.00;55.50;;;;;;5012089;28;20133;-83
2023/07/03 10:35:02;;;;;;;4.00;0.70;;;18.00;55.80;;;;;;5026783;28;20060;-82
2023/07/03 10:37:32;;;;;;;5.88;0.73;;;18.00;55.10;;;;;;5024576;28;20086;-84
2023/07/03 10:40:09;;;;;;;4.30;0.90;;;18.00;55.10;;;;;;5026646;28;20105;-82
2023/07/03 10:42:42;;;;;;;5.53;0.60;;;18.00;55.70;;;;;;5014128;28;20054;-81
2023/07/03 10:45:13;;;;;;;3.75;0.60;;;18.00;54.70;;;;;;5027974;28;20065;-81
2023/07/03 10:47:47;;;;;;;3.92;0.77;;;18.00;55.50;;;;;;5024791;28;20520;-81
2023/07/03 10:50:16;;;;;;;4.43;0.95;;;18.00;54.20;;;;;;5028275;28;20159;-82
2023/07/03 10:52:48;;;;;;;6.65;0.93;;;18.10;54.50;;;;;;5029680;28;20050;-82
2023/07/03 10:55:23;;;;;;;4.83;0.80;;;18.20;54.00;;;;;;5019064;28;20085;-80
2023/07/03 10:57:57;;;;;;;4.20;0.88;;;18.20;53.40;;;;;;5025435;28;20050;-82
2023/07/03 11:00:33;;;;;;;4.88;0.93;;;18.20;52.50;;;;;;5019436;28;20073;-82
2023/07/03 11:03:13;;;;;;;4.30;0.70;;;18.20;53.10;;;;;;5009345;28;20165;-86
2023/07/03 11:05:44;;;;;;;6.70;0.93;;;18.20;53.10;;;;;;5028578;28;20049;-84
2023/07/03 11:08:20;;;;;;;2.90;0.40;;;18.20;52.70;;;;;;5039567;28;20058;-87
2023/07/03 11:10:54;;;;;;;3.58;0.85;;;18.20;52.10;;;;;;5027993;28;20061;-83
2023/07/03 11:13:28;;;;;;;2.72;0.60;;;18.10;52.30;;;;;;5019415;28;20092;-84
2023/07/03 11:16:02;;;;;;;4.35;0.75;;;18.10;52.50;;;;;;5026999;28;20060;-81
2023/07/03 11:18:48;;;;;;;3.15;0.60;;;18.00;53.10;;;;;;5021758;28;20050;-82
2023/07/03 11:21:25;;;;;;;3.80;0.60;;;18.00;53.50;;;;;;5026368;28;20050;-79
2023/07/03 11:24:01;;;;;;;3.45;0.57;;;17.90;53.90;;;;;;5039954;28;20048;-79
2023/07/03 11:26:36;;;;;;;4.00;0.65;;;17.80;53.70;;;;;;5023671;28;20061;-79
2023/07/03 11:29:04;;;;;;;4.25;0.95;;;17.80;54.70;;;;;;5010558;28;20496;-80
2023/07/03 11:31:38;;;;;;;5.30;0.80;;;17.70;55.60;;;;;;5019944;28;20061;-78
2023/07/03 11:34:07;;;;;;;4.83;1.00;;;17.60;56.70;;;;;;5022329;28;20042;-82
2023/07/03 11:36:41;;;;;;;4.25;0.85;;;17.60;56.80;;;;;;5027775;28;20049;-82
2023/07/03 11:39:15;;;;;;;4.80;0.93;;;17.60;57.00;;;;;;5023268;28;20562;-82
2023/07/03 11:41:50;;;;;;;5.10;0.70;;;17.80;56.70;;;;;;5015991;28;20054;-81
2023/07/03 11:44:19;;;;;;;7.45;0.50;;;17.80;57.50;;;;;;5042798;28;20548;-82
2023/07/03 11:46:52;;;;;;;4.63;1.00;;;17.90;55.20;;;;;;5009928;28;20057;-81
2023/07/03 11:49:19;;;;;;;5.03;0.85;;;18.00;54.80;;;;;;5026347;28;20121;-81
2023/07/03 11:51:47;;;;;;;3.55;0.60;;;18.00;54.40;;;;;;5026556;28;20053;-81
2023/07/03 11:54:20;;;;;;;5.40;1.05;;;18.10;54.80;;;;;;5027925;28;20133;-81
2023/07/03 11:56:55;;;;;;;4.20;0.90;;;18.10;55.70;;;;;;5029360;28;20212;-81
2023/07/03 11:59:31;;;;;;;5.10;0.80;;;18.20;56.10;;;;;;4991951;28;20129;-81
2023/07/03 12:02:44;;;;;;;4.68;0.90;;;18.20;56.20;;;;;;5026368;28;20073;-81
2023/07/03 12:05:11;;;;;;;3.55;0.63;;;18.30;54.70;;;;;;5024826;28;20277;-81
2023/07/03 12:07:50;;;;;;;4.18;0.50;;;18.30;54.00;;;;;;5039210;28;21045;-81
2023/07/03 12:10:41;;;;;;;2.88;0.70;;;18.30;52.80;;;;;;5043943;28;20189;-78
2023/07/03 12:13:29;;;;;;;3.53;0.70;;;18.30;52.70;;;;;;5028522;28;20136;-80
2023/07/03 12:15:57;;;;;;;3.03;0.55;;;18.30;50.20;;;;;;5043466;28;20058;-82
2023/07/03 12:18:24;;;;;;;4.25;0.88;;;18.30;50.60;;;;;;5042658;28;20155;-82
2023/07/03 12:21:04;;;;;;;4.03;0.50;;;18.30;51.40;;;;;;5019055;28;20066;-82
2023/07/03 12:23:36;;;;;;;4.75;1.10;;;18.30;52.10;;;;;;5025916;28;20424;-82
2023/07/03 12:26:05;;;;;;;4.50;0.70;;;18.40;49.40;;;;;;5025835;28;20060;-83
2023/07/03 12:28:34;;;;;;;4.53;0.55;;;18.50;48.90;;;;;;5042170;28;20050;-83
2023/07/03 12:31:18;;;;;;;5.30;1.13;;;18.50;48.70;;;;;;5022460;28;20054;-84
2023/07/03 12:33:57;;;;;;;2.63;0.50;;;18.40;49.00;;;;;;5013323;28;21036;-86
2023/07/03 12:36:28;;;;;;;2.53;0.60;;;18.40;49.60;;;;;;5012382;28;20061;-83
2023/07/03 12:38:56;;;;;;;3.97;0.70;;;18.40;51.40;;;;;;5026418;28;20062;-81
2023/07/03 12:41:30;;;;;;;3.92;0.77;;;18.30;51.50;;;;;;5043165;28;20128;-80
2023/07/03 12:44:01;;;;;;;4.68;1.10;;;18.30;51.90;;;;;;5026456;28;20068;-81
2023/07/03 12:46:30;;;;;;;4.10;0.90;;;18.20;52.40;;;;;;5027042;28;20053;-81
2023/07/03 12:49:06;;;;;;;3.97;0.60;;;18.20;52.50;;;;;;5023839;28;20520;-81
2023/07/03 12:51:43;;;;;;;3.13;0.80;;;18.10;52.10;;;;;;5015753;28;20132;-79
2023/07/03 12:54:12;;;;;;;2.97;0.80;;;18.00;51.50;;;;;;5025586;28;20168;-81
2023/07/03 12:56:40;;;;;;;4.68;0.60;;;18.00;52.00;;;;;;5043723;28;20171;-81
2023/07/03 12:59:10;;;;;;;2.63;0.50;;;17.90;51.90;;;;;;5041941;28;20141;-80
2023/07/03 13:01:37;;;;;;;4.55;0.70;;;17.90;52.50;;;;;;5007291;28;20141;-80